Time;durP1;ratioP1;P1;durP2;ratioP2;P2;SDS_P1;SDS_P2;PMS_P1;PMS_P2;Temp;Humidity;BMP_temperature;BMP_pressure;BME280_temperature;BME280_humidity;BME280_pressure;Samples;Min_cycle;Max_cycle;Signal;HPM_P1;HPM_P2
2023/12/10 00:01:17;;;;;;;151.60;50.80;;;-4.30;99.90;;;;;;4423651;28;657392;-72
2023/12/10 00:04:04;;;;;;;140.20;53.80;;;-4.30;99.90;;;;;;4401307;28;657892;-71
2023/12/10 00:06:51;;;;;;;194.27;54.87;;;-4.20;99.90;;;;;;4424585;28;657326;-71
2023/12/10 00:09:39;;;;;;;150.57;52.03;;;-4.20;99.90;;;;;;4402097;28;657709;-71
2023/12/10 00:12:27;;;;;;;147.50;50.33;;;-4.10;99.90;;;;;;4424158;28;659684;-71
2023/12/10 00:15:14;;;;;;;138.18;50.15;;;-4.10;99.90;;;;;;4403812;28;658832;-71
2023/12/10 00:18:02;;;;;;;138.40;48.93;;;-4.00;99.90;;;;;;4420319;28;657816;-71
2023/12/10 00:20:49;;;;;;;133.97;49.57;;;-4.00;99.90;;;;;;4398108;28;658144;-70
2023/12/10 00:23:36;;;;;;;124.63;47.93;;;-4.00;99.90;;;;;;4420345;28;657726;-72
2023/12/10 00:26:23;;;;;;;127.63;46.77;;;-4.00;99.90;;;;;;4402844;28;657755;-71
2023/12/10 00:29:12;;;;;;;110.43;42.33;;;-4.00;99.90;;;;;;4422612;28;658605;-71
2023/12/10 00:31:59;;;;;;;128.02;46.10;;;-4.00;99.90;;;;;;4399627;28;658029;-71
2023/12/10 00:34:47;;;;;;;131.10;44.07;;;-3.90;99.90;;;;;;4430545;28;657542;-71
2023/12/10 00:37:34;;;;;;;129.17;44.97;;;-3.90;99.90;;;;;;4399110;28;657481;-71
2023/12/10 00:40:21;;;;;;;114.00;41.50;;;-3.90;99.90;;;;;;4425613;28;658109;-71
2023/12/10 00:43:08;;;;;;;116.80;43.07;;;-3.90;99.90;;;;;;4401601;28;657881;-71
2023/12/10 00:45:57;;;;;;;109.43;39.87;;;-4.00;99.90;;;;;;4419887;28;658237;-71
2023/12/10 00:48:44;;;;;;;99.70;36.30;;;-3.90;99.90;;;;;;4409224;28;658545;-71
2023/12/10 00:51:32;;;;;;;97.30;34.60;;;-4.00;99.90;;;;;;4426937;28;656565;-72
2023/12/10 00:54:19;;;;;;;92.23;34.97;;;-4.00;99.90;;;;;;4404960;28;656940;-71
2023/12/10 00:57:06;;;;;;;95.33;34.17;;;-4.00;99.90;;;;;;4426975;28;655962;-71
2023/12/10 00:59:53;;;;;;;83.47;30.90;;;-4.00;99.90;;;;;;4399746;28;656859;-70
2023/12/10 01:02:42;;;;;;;98.50;34.67;;;-4.00;99.90;;;;;;4424144;28;657789;-71
2023/12/10 01:05:29;;;;;;;83.38;30.50;;;-3.90;99.90;;;;;;4410078;28;657486;-71
2023/12/10 01:08:17;;;;;;;76.00;28.33;;;-3.90;99.90;;;;;;4419128;28;657127;-71
2023/12/10 01:11:05;;;;;;;88.03;32.97;;;-4.00;99.90;;;;;;4398121;28;658456;-73
2023/12/10 01:13:52;;;;;;;61.43;24.47;;;-4.00;99.90;;;;;;4411862;28;656857;-70
2023/12/10 01:16:40;;;;;;;65.27;23.97;;;-4.10;99.90;;;;;;4435089;28;658020;-71
2023/12/10 01:19:29;;;;;;;64.40;25.10;;;-4.00;99.90;;;;;;4426512;28;657946;-70
2023/12/10 01:22:16;;;;;;;66.50;25.53;;;-4.00;99.90;;;;;;4416909;28;658212;-71
2023/12/10 01:25:04;;;;;;;61.87;22.70;;;-3.90;99.90;;;;;;4392983;28;656714;-70
2023/12/10 01:27:51;;;;;;;61.57;23.03;;;-4.00;99.90;;;;;;4421330;28;657056;-70
2023/12/10 01:30:39;;;;;;;65.20;23.43;;;-3.90;99.90;;;;;;4399471;28;657113;-71
2023/12/10 01:33:26;;;;;;;51.87;21.57;;;-3.90;99.90;;;;;;4420355;28;656794;-71
2023/12/10 01:36:23;;;;;;;60.47;22.43;;;-3.90;99.90;;;;;;4403577;28;657509;-71
2023/12/10 01:39:14;;;;;;;53.27;19.90;;;-3.80;99.90;;;;;;4406601;28;656724;-70
2023/12/10 01:42:02;;;;;;;52.28;20.67;;;-3.70;99.90;;;;;;4402424;28;657038;-71
2023/12/10 01:44:49;;;;;;;48.50;18.87;;;-3.70;99.90;;;;;;4416038;28;657141;-71
2023/12/10 01:47:36;;;;;;;56.35;20.67;;;-3.60;99.90;;;;;;4423253;28;657075;-71
2023/12/10 01:50:26;;;;;;;57.30;20.70;;;-3.50;99.90;;;;;;4407197;28;657101;-71
2023/12/10 01:53:14;;;;;;;51.50;19.87;;;-3.50;99.90;;;;;;4414603;28;656444;-72
2023/12/10 01:56:02;;;;;;;53.30;20.63;;;-3.50;99.90;;;;;;4422362;28;656551;-71
2023/12/10 01:58:50;;;;;;;55.77;18.90;;;-3.40;99.90;;;;;;4394790;28;657779;-71
2023/12/10 02:01:37;;;;;;;50.13;20.13;;;-3.30;99.90;;;;;;4410205;28;657244;-71
2023/12/10 02:04:25;;;;;;;50.93;19.30;;;-3.30;99.90;;;;;;4422930;28;657336;-72
2023/12/10 02:07:13;;;;;;;44.90;17.07;;;-3.20;99.90;;;;;;4416437;28;656769;-71
2023/12/10 02:10:03;;;;;;;45.72;18.60;;;-3.00;99.90;;;;;;4425142;28;657743;-73
2023/12/10 02:12:52;;;;;;;44.93;17.70;;;-3.00;99.90;;;;;;4402714;28;657515;-71
2023/12/10 02:15:40;;;;;;;54.50;18.57;;;-2.90;99.90;;;;;;4397269;28;658152;-72
2023/12/10 02:18:27;;;;;;;49.37;18.13;;;-2.80;99.90;;;;;;4411364;28;656392;-72
2023/12/10 02:21:15;;;;;;;43.30;16.50;;;-2.70;99.90;;;;;;4427389;28;656858;-72
2023/12/10 02:24:04;;;;;;;32.03;12.60;;;-2.70;99.90;;;;;;4421319;28;656372;-71
2023/12/10 02:26:52;;;;;;;46.20;17.90;;;-2.60;99.90;;;;;;4422283;28;657340;-74
2023/12/10 02:29:39;;;;;;;40.70;16.57;;;-2.60;99.90;;;;;;4392211;28;658485;-72
2023/12/10 02:32:26;;;;;;;43.63;17.52;;;-2.60;99.90;;;;;;4421627;28;658588;-72
2023/12/10 02:35:14;;;;;;;61.67;21.83;;;-2.60;99.90;;;;;;4402621;28;657210;-72
2023/12/10 02:38:03;;;;;;;50.73;19.40;;;-2.60;99.90;;;;;;4423985;28;656969;-72
2023/12/10 02:40:50;;;;;;;49.63;19.00;;;-2.50;99.90;;;;;;4408431;28;657500;-71
2023/12/10 02:43:39;;;;;;;44.43;17.37;;;-2.50;99.90;;;;;;4409596;28;656615;-71
2023/12/10 02:46:26;;;;;;;40.93;17.57;;;-2.40;99.90;;;;;;4421676;28;657038;-72
2023/12/10 02:49:13;;;;;;;44.90;18.13;;;-2.40;99.90;;;;;;4403253;28;657693;-72
2023/12/10 02:52:00;;;;;;;47.50;17.37;;;-2.30;99.90;;;;;;4419706;28;657282;-72
2023/12/10 02:54:48;;;;;;;46.35;17.05;;;-2.30;99.90;;;;;;4413713;28;656646;-71
2023/12/10 02:57:35;;;;;;;42.20;16.47;;;-2.40;99.90;;;;;;4424688;28;658091;-72
2023/12/10 03:00:24;;;;;;;39.50;16.53;;;-2.40;99.90;;;;;;4419158;28;656496;-72
2023/12/10 03:03:11;;;;;;;39.40;15.67;;;-2.40;99.90;;;;;;4420352;28;656258;-72
2023/12/10 03:05:59;;;;;;;43.37;16.73;;;-2.40;99.90;;;;;;4403645;28;656475;-72
2023/12/10 03:08:46;;;;;;;43.03;16.00;;;-2.40;99.90;;;;;;4417784;28;657951;-72
2023/12/10 03:11:33;;;;;;;32.93;14.97;;;-2.40;99.90;;;;;;4404374;28;656495;-72
2023/12/10 03:14:21;;;;;;;37.90;16.23;;;-2.40;99.90;;;;;;4424162;28;657547;-72
2023/12/10 03:17:09;;;;;;;36.77;15.90;;;-2.40;99.90;;;;;;4405714;28;656310;-72
2023/12/10 03:19:56;;;;;;;34.40;14.83;;;-2.30;99.90;;;;;;4429399;28;656880;-72
2023/12/10 03:22:43;;;;;;;35.10;15.25;;;-2.20;99.90;;;;;;4411779;28;656341;-72
2023/12/10 03:25:31;;;;;;;35.37;15.00;;;-2.20;99.90;;;;;;4422318;28;657450;-72
2023/12/10 03:28:18;;;;;;;31.53;14.43;;;-2.30;99.90;;;;;;4408273;28;656671;-72
2023/12/10 03:31:05;;;;;;;35.10;14.37;;;-2.30;99.90;;;;;;4429236;28;657903;-72
2023/12/10 03:33:54;;;;;;;37.70;14.17;;;-2.20;99.90;;;;;;4404339;28;656715;-72
2023/12/10 03:36:41;;;;;;;33.33;13.77;;;-2.20;99.90;;;;;;4423055;28;656655;-72
2023/12/10 03:39:28;;;;;;;34.00;13.77;;;-2.20;99.90;;;;;;4411700;28;656585;-72
2023/12/10 03:42:16;;;;;;;36.97;14.63;;;-2.20;99.90;;;;;;4422898;28;656572;-72
2023/12/10 03:45:03;;;;;;;42.60;17.43;;;-2.20;99.90;;;;;;4405830;28;656601;-72
2023/12/10 03:47:50;;;;;;;42.03;17.07;;;-2.20;99.90;;;;;;4429023;28;657587;-72
2023/12/10 03:50:39;;;;;;;37.50;15.93;;;-2.20;99.90;;;;;;4407190;28;656966;-72
2023/12/10 03:53:26;;;;;;;46.13;16.97;;;-2.30;99.90;;;;;;4428547;28;656899;-72
2023/12/10 03:56:14;;;;;;;42.60;17.37;;;-2.20;99.90;;;;;;4402924;28;656111;-72
2023/12/10 03:59:01;;;;;;;44.57;18.20;;;-2.30;99.90;;;;;;4429068;28;656931;-72
2023/12/10 04:01:48;;;;;;;38.97;16.17;;;-2.40;99.90;;;;;;4404374;28;656890;-72
2023/12/10 04:04:35;;;;;;;42.93;17.77;;;-2.40;99.90;;;;;;4427180;28;657256;-72
2023/12/10 04:07:25;;;;;;;41.80;16.83;;;-2.40;99.90;;;;;;4405985;28;656797;-72
2023/12/10 04:10:13;;;;;;;36.67;15.87;;;-2.50;99.90;;;;;;4419236;28;656872;-71
2023/12/10 04:13:00;;;;;;;33.43;12.77;;;-2.40;99.90;;;;;;4423548;28;657932;-72
2023/12/10 04:15:47;;;;;;;35.27;15.63;;;-2.40;99.90;;;;;;4417800;28;656869;-72
2023/12/10 04:18:37;;;;;;;37.90;15.23;;;-2.40;99.90;;;;;;4422841;28;657346;-71
2023/12/10 04:21:24;;;;;;;42.63;15.53;;;-2.50;99.90;;;;;;4399857;28;656211;-72
2023/12/10 04:24:15;;;;;;;38.03;14.93;;;-2.50;99.90;;;;;;4432203;28;657477;-72
2023/12/10 04:27:03;;;;;;;39.53;16.27;;;-2.50;99.90;;;;;;4387630;28;657069;-72
2023/12/10 04:29:51;;;;;;;32.50;14.33;;;-2.30;99.90;;;;;;4418840;28;657622;-72
2023/12/10 04:32:38;;;;;;;38.40;14.90;;;-2.30;99.90;;;;;;4404871;28;656459;-71
2023/12/10 04:35:26;;;;;;;32.93;14.43;;;-2.20;99.90;;;;;;4432003;28;657090;-72
2023/12/10 04:38:13;;;;;;;29.40;13.37;;;-2.30;99.90;;;;;;4409175;28;657751;-72
2023/12/10 04:41:01;;;;;;;37.30;14.57;;;-2.20;99.90;;;;;;4432247;28;656601;-72
2023/12/10 04:43:49;;;;;;;35.60;14.30;;;-2.10;99.90;;;;;;4404532;28;656667;-72
2023/12/10 04:46:36;;;;;;;29.90;13.33;;;-2.10;99.90;;;;;;4429254;28;657198;-72
2023/12/10 04:49:23;;;;;;;27.60;13.17;;;-2.10;99.90;;;;;;4401003;28;656662;-72
2023/12/10 04:52:10;;;;;;;28.63;13.00;;;-2.10;99.90;;;;;;4425868;28;656730;-72
2023/12/10 04:54:58;;;;;;;33.00;13.80;;;-2.00;99.90;;;;;;4404963;28;656925;-72
2023/12/10 04:57:47;;;;;;;37.33;13.23;;;-2.00;99.90;;;;;;4430072;28;657787;-72
2023/12/10 05:00:34;;;;;;;33.80;13.93;;;-2.00;99.90;;;;;;4405905;28;657964;-72
2023/12/10 05:03:21;;;;;;;32.77;12.97;;;-2.10;99.90;;;;;;4427039;28;655991;-72
2023/12/10 05:06:09;;;;;;;35.00;14.60;;;-2.10;99.90;;;;;;4403422;28;656575;-72
2023/12/10 05:08:56;;;;;;;33.93;13.90;;;-2.10;99.90;;;;;;4419671;28;656224;-72
2023/12/10 05:11:43;;;;;;;32.70;12.87;;;-2.20;99.90;;;;;;4402154;28;656763;-72
2023/12/10 05:14:32;;;;;;;31.90;13.43;;;-2.20;99.90;;;;;;4426088;28;657579;-72
2023/12/10 05:17:19;;;;;;;33.30;13.20;;;-2.20;99.90;;;;;;4402338;28;657225;-72
2023/12/10 05:20:08;;;;;;;31.07;13.83;;;-2.30;99.90;;;;;;4422984;28;656865;-72
2023/12/10 05:22:55;;;;;;;29.60;13.53;;;-2.40;99.90;;;;;;4395558;28;657775;-72
2023/12/10 05:25:43;;;;;;;29.98;13.60;;;-2.40;99.90;;;;;;4408430;28;656540;-72
2023/12/10 05:28:30;;;;;;;29.53;14.27;;;-2.40;99.90;;;;;;4435139;28;657690;-72
2023/12/10 05:31:19;;;;;;;34.27;15.97;;;-2.50;99.90;;;;;;4426774;28;656441;-71
2023/12/10 05:34:07;;;;;;;38.90;14.53;;;-2.40;99.90;;;;;;4417891;28;656430;-71
2023/12/10 05:36:54;;;;;;;45.77;18.93;;;-2.40;99.90;;;;;;4395651;28;656660;-72
2023/12/10 05:39:41;;;;;;;95.47;20.03;;;-2.40;99.90;;;;;;4430640;28;656958;-72
2023/12/10 05:42:28;;;;;;;46.23;19.03;;;-2.30;99.90;;;;;;4405640;28;657930;-72
2023/12/10 05:45:16;;;;;;;47.67;19.30;;;-2.30;99.90;;;;;;4427731;28;656489;-72
2023/12/10 05:48:04;;;;;;;46.53;18.90;;;-2.20;99.90;;;;;;4404808;28;656666;-72
2023/12/10 05:50:52;;;;;;;40.70;17.70;;;-2.20;99.90;;;;;;4417941;28;657008;-72
2023/12/10 05:53:39;;;;;;;38.80;16.03;;;-2.10;99.90;;;;;;4399523;28;656894;-72
2023/12/10 05:56:26;;;;;;;44.00;18.00;;;-2.20;99.90;;;;;;4429821;28;657060;-72
2023/12/10 05:59:14;;;;;;;42.77;18.33;;;-2.20;99.90;;;;;;4405147;28;656983;-71
2023/12/10 06:02:02;;;;;;;41.97;16.40;;;-2.20;99.90;;;;;;4416149;28;658361;-72
2023/12/10 06:04:52;;;;;;;38.90;16.63;;;-2.20;99.90;;;;;;4392159;28;659040;-72
2023/12/10 06:07:39;;;;;;;36.17;15.67;;;-2.20;99.90;;;;;;4406071;28;657652;-72
2023/12/10 06:10:26;;;;;;;37.87;16.40;;;-2.20;99.90;;;;;;4423469;28;657849;-72
2023/12/10 06:13:13;;;;;;;42.10;17.00;;;-2.20;99.90;;;;;;4394804;28;657960;-72
2023/12/10 06:16:00;;;;;;;45.77;18.67;;;-2.20;99.90;;;;;;4418735;28;658728;-72
2023/12/10 06:18:48;;;;;;;49.80;19.63;;;-2.10;99.90;;;;;;4398380;28;658107;-72
2023/12/10 06:21:37;;;;;;;46.67;20.17;;;-2.00;99.90;;;;;;4423941;28;658725;-73
2023/12/10 06:24:24;;;;;;;50.70;20.13;;;-2.00;99.90;;;;;;4398879;28;658544;-73
2023/12/10 06:27:11;;;;;;;47.93;18.30;;;-2.00;99.90;;;;;;4424661;28;657620;-73
2023/12/10 06:29:58;;;;;;;39.10;17.17;;;-2.00;99.90;;;;;;4404351;28;657888;-72
2023/12/10 06:32:45;;;;;;;45.87;18.57;;;-1.90;99.90;;;;;;4421360;28;658493;-73
2023/12/10 06:35:33;;;;;;;44.73;17.67;;;-1.90;99.90;;;;;;4402152;28;657641;-72
2023/12/10 06:38:21;;;;;;;44.00;18.53;;;-2.00;99.90;;;;;;4422621;28;658267;-72
2023/12/10 06:41:08;;;;;;;44.03;17.83;;;-1.90;99.90;;;;;;4402130;28;657812;-72
2023/12/10 06:43:56;;;;;;;40.45;15.98;;;-1.80;99.90;;;;;;4415134;28;658788;-72
2023/12/10 06:46:43;;;;;;;46.57;18.73;;;-1.90;99.90;;;;;;4397827;28;658022;-72
2023/12/10 06:49:30;;;;;;;43.77;18.33;;;-1.90;99.90;;;;;;4419093;28;658550;-72
2023/12/10 06:52:17;;;;;;;43.93;17.33;;;-1.90;99.90;;;;;;4412418;28;657477;-72
2023/12/10 06:55:07;;;;;;;47.17;17.63;;;-1.70;99.90;;;;;;4429207;28;657876;-72
2023/12/10 06:57:54;;;;;;;57.20;19.33;;;-1.60;99.90;;;;;;4400668;28;658156;-72
2023/12/10 07:00:41;;;;;;;48.90;18.03;;;-1.50;99.90;;;;;;4429102;28;657817;-72
2023/12/10 07:03:28;;;;;;;43.13;16.60;;;-1.60;99.90;;;;;;4404645;28;658346;-72
2023/12/10 07:06:16;;;;;;;45.80;16.60;;;-1.60;99.90;;;;;;4425853;28;658187;-73
2023/12/10 07:09:06;;;;;;;42.13;16.33;;;-1.50;99.90;;;;;;4405324;28;657237;-72
2023/12/10 07:11:55;;;;;;;44.20;16.90;;;-1.50;99.90;;;;;;4402668;28;657607;-72
2023/12/10 07:14:42;;;;;;;44.67;16.17;;;-1.50;99.90;;;;;;4418389;28;657308;-72
2023/12/10 07:17:30;;;;;;;39.33;15.07;;;-1.60;99.90;;;;;;4423226;28;657988;-72
2023/12/10 07:20:17;;;;;;;43.73;16.23;;;-1.50;99.90;;;;;;4417082;28;658074;-72
2023/12/10 07:23:05;;;;;;;39.57;14.97;;;-1.30;99.90;;;;;;4429503;28;657856;-73
2023/12/10 07:25:52;;;;;;;42.73;16.30;;;-1.20;99.90;;;;;;4423501;28;657173;-73
2023/12/10 07:28:40;;;;;;;36.50;15.27;;;-1.10;99.90;;;;;;4397412;28;658930;-72
2023/12/10 07:31:30;;;;;;;41.03;14.53;;;-1.10;99.90;;;;;;4401920;28;658795;-72
2023/12/10 07:34:17;;;;;;;34.03;13.57;;;-1.10;99.90;;;;;;4428188;28;658801;-73
2023/12/10 07:37:05;;;;;;;38.97;15.40;;;-0.90;99.90;;;;;;4400015;28;658464;-73
2023/12/10 07:39:53;;;;;;;35.70;14.80;;;-0.80;99.90;;;;;;4413220;28;657229;-73
2023/12/10 07:42:41;;;;;;;34.65;14.60;;;-0.80;99.90;;;;;;4430913;28;658146;-73
2023/12/10 07:45:29;;;;;;;34.50;14.07;;;-0.80;99.90;;;;;;4403076;28;657882;-73
2023/12/10 07:48:16;;;;;;;42.40;16.80;;;-0.70;99.90;;;;;;4424539;28;658054;-72
2023/12/10 07:51:04;;;;;;;38.77;16.70;;;-0.60;99.90;;;;;;4400580;28;657726;-73
2023/12/10 07:53:51;;;;;;;43.10;16.43;;;-0.50;99.90;;;;;;4431108;28;657816;-73
2023/12/10 07:56:38;;;;;;;38.33;15.83;;;-0.50;99.90;;;;;;4400835;28;657613;-72
2023/12/10 07:59:25;;;;;;;37.37;17.20;;;-0.40;99.90;;;;;;4421978;28;658802;-73
2023/12/10 08:02:14;;;;;;;37.57;16.43;;;-0.20;99.90;;;;;;4402150;28;657493;-72
2023/12/10 08:05:03;;;;;;;44.33;18.67;;;-0.10;99.90;;;;;;4425162;28;657719;-73
2023/12/10 08:07:50;;;;;;;43.07;18.27;;;0.00;99.90;;;;;;4401970;28;658324;-73
2023/12/10 08:10:37;;;;;;;45.97;18.40;;;-0.10;99.90;;;;;;4415199;28;656266;-73
2023/12/10 08:13:25;;;;;;;45.20;19.63;;;0.00;99.90;;;;;;4429101;28;658424;-73
2023/12/10 08:16:12;;;;;;;43.27;19.87;;;0.10;99.90;;;;;;4425926;28;657206;-73
2023/12/10 08:19:02;;;;;;;41.23;17.30;;;0.10;99.90;;;;;;4405265;28;657381;-72
2023/12/10 08:21:49;;;;;;;41.40;19.27;;;0.20;99.90;;;;;;4398517;28;657599;-72
2023/12/10 08:24:36;;;;;;;44.00;19.20;;;0.20;99.90;;;;;;4419614;28;656500;-72
2023/12/10 08:27:24;;;;;;;44.30;19.17;;;0.20;99.90;;;;;;4403989;28;657231;-72
2023/12/10 08:30:12;;;;;;;43.07;19.57;;;0.20;99.90;;;;;;4420831;28;657068;-73
2023/12/10 08:32:59;;;;;;;56.33;23.67;;;0.20;99.90;;;;;;4401685;28;657542;-72
2023/12/10 08:35:48;;;;;;;60.30;24.73;;;0.30;99.90;;;;;;4425175;28;656033;-73
2023/12/10 08:38:35;;;;;;;73.30;33.30;;;0.50;99.90;;;;;;4399644;28;658300;-73
2023/12/10 08:41:22;;;;;;;58.63;23.60;;;0.50;99.90;;;;;;4417114;28;656612;-72
2023/12/10 08:44:10;;;;;;;60.93;27.47;;;0.60;99.90;;;;;;4421765;28;656989;-72
2023/12/10 08:46:57;;;;;;;66.37;27.80;;;0.50;99.90;;;;;;4430206;28;657244;-72
2023/12/10 08:49:44;;;;;;;70.47;30.20;;;0.50;99.90;;;;;;4399093;28;656865;-73
2023/12/10 08:52:33;;;;;;;82.93;33.17;;;0.60;99.90;;;;;;4417489;28;657490;-73
2023/12/10 08:55:20;;;;;;;69.70;29.47;;;0.60;99.90;;;;;;4400088;28;656755;-73
2023/12/10 08:58:08;;;;;;;72.80;30.43;;;0.50;99.90;;;;;;4398638;28;657321;-72
2023/12/10 09:00:55;;;;;;;65.77;27.77;;;0.50;99.90;;;;;;4421353;28;657841;-72
2023/12/10 09:03:45;;;;;;;66.27;29.17;;;0.50;99.90;;;;;;4412166;28;656523;-72
2023/12/10 09:06:32;;;;;;;61.00;23.13;;;0.60;99.90;;;;;;4424426;28;655603;-72
2023/12/10 09:09:21;;;;;;;67.90;27.93;;;0.60;99.90;;;;;;4401668;28;656261;-72
2023/12/10 09:12:08;;;;;;;71.63;29.00;;;0.60;99.90;;;;;;4400181;28;656389;-72
2023/12/10 09:14:55;;;;;;;68.37;29.93;;;0.60;99.90;;;;;;4423468;28;657436;-71
2023/12/10 09:17:42;;;;;;;64.27;26.47;;;0.80;99.90;;;;;;4404499;28;656786;-72
2023/12/10 09:20:30;;;;;;;60.07;26.30;;;0.70;99.90;;;;;;4426594;28;656283;-72
2023/12/10 09:23:17;;;;;;;65.63;24.97;;;0.60;99.90;;;;;;4421175;28;657510;-71
2023/12/10 09:26:06;;;;;;;62.73;24.97;;;0.70;99.90;;;;;;4425143;28;656577;-72
2023/12/10 09:28:53;;;;;;;59.10;26.03;;;0.60;99.90;;;;;;4401219;28;657182;-72
2023/12/10 09:31:41;;;;;;;64.22;27.48;;;0.70;99.90;;;;;;4430083;28;657957;-72
2023/12/10 09:34:28;;;;;;;64.70;25.53;;;0.60;99.90;;;;;;4403979;28;657134;-72
2023/12/10 09:37:15;;;;;;;64.67;26.73;;;0.60;99.90;;;;;;4417993;28;657387;-72
2023/12/10 09:40:03;;;;;;;65.03;23.90;;;0.60;99.90;;;;;;4407377;28;656900;-71
2023/12/10 09:42:52;;;;;;;69.63;29.40;;;0.70;99.90;;;;;;4421627;28;657909;-73
2023/12/10 09:45:39;;;;;;;114.73;35.23;;;0.70;99.90;;;;;;4396954;28;657943;-72
2023/12/10 09:48:26;;;;;;;64.83;28.67;;;0.70;99.90;;;;;;4424085;28;657652;-73
2023/12/10 09:51:14;;;;;;;69.87;28.70;;;0.60;99.90;;;;;;4402646;28;656868;-72
2023/12/10 09:54:01;;;;;;;56.67;25.33;;;0.60;99.90;;;;;;4424874;28;657323;-72
2023/12/10 09:56:49;;;;;;;51.03;21.03;;;0.50;99.90;;;;;;4401489;28;656783;-72
2023/12/10 09:59:37;;;;;;;50.87;19.60;;;0.50;99.90;;;;;;4421310;28;657012;-73
2023/12/10 10:02:31;;;;;;;50.28;21.48;;;0.60;99.90;;;;;;4403460;28;657028;-72
2023/12/10 10:05:18;;;;;;;43.28;18.83;;;0.70;99.90;;;;;;4400175;28;656197;-72
2023/12/10 10:08:05;;;;;;;43.63;18.63;;;0.80;99.90;;;;;;4417000;28;656671;-72
2023/12/10 10:10:53;;;;;;;49.33;20.43;;;0.70;99.90;;;;;;4397981;28;656841;-72
2023/12/10 10:13:46;;;;;;;50.23;20.47;;;0.60;99.90;;;;;;4415305;28;657682;-72
2023/12/10 10:16:35;;;;;;;44.33;18.80;;;0.70;99.90;;;;;;4398134;28;656745;-72
2023/12/10 10:19:22;;;;;;;39.80;15.53;;;0.80;99.90;;;;;;4414385;28;657506;-72
2023/12/10 10:22:09;;;;;;;38.83;16.80;;;0.80;99.90;;;;;;4397060;28;656615;-72
2023/12/10 10:24:56;;;;;;;40.13;17.47;;;0.70;99.90;;;;;;4424913;28;657167;-72
2023/12/10 10:27:43;;;;;;;45.53;19.77;;;0.70;99.90;;;;;;4398159;28;656876;-72
2023/12/10 10:30:31;;;;;;;43.90;18.20;;;0.50;99.90;;;;;;4421674;28;657669;-72
2023/12/10 10:33:19;;;;;;;47.30;20.07;;;0.70;99.90;;;;;;4396483;28;658738;-71
2023/12/10 10:36:08;;;;;;;40.30;18.53;;;0.80;99.90;;;;;;4422028;28;656498;-72
2023/12/10 10:38:55;;;;;;;51.63;20.07;;;0.70;99.90;;;;;;4401982;28;657338;-72
2023/12/10 10:41:42;;;;;;;51.53;20.23;;;0.80;99.90;;;;;;4401957;28;657181;-72
2023/12/10 10:44:30;;;;;;;49.30;20.13;;;0.70;99.90;;;;;;4426059;28;657127;-72
2023/12/10 10:47:18;;;;;;;43.03;18.83;;;0.70;99.90;;;;;;4417725;28;657074;-72
2023/12/10 10:50:08;;;;;;;51.27;20.80;;;0.60;99.90;;;;;;4416155;28;657780;-72
2023/12/10 10:52:55;;;;;;;44.67;19.93;;;0.70;99.90;;;;;;4396696;28;657630;-72
2023/12/10 10:55:46;;;;;;;46.10;21.13;;;0.70;99.90;;;;;;4410939;28;657050;-72
2023/12/10 10:58:33;;;;;;;50.47;23.07;;;0.70;99.90;;;;;;4403391;28;656400;-72
2023/12/10 11:01:40;;;;;;;51.40;22.43;;;0.80;99.90;;;;;;4423852;28;657368;-72
2023/12/10 11:04:34;;;;;;;49.43;22.47;;;0.80;99.90;;;;;;4386217;28;657102;-72
2023/12/10 11:07:24;;;;;;;54.00;23.00;;;1.00;99.90;;;;;;4403246;28;656104;-72
2023/12/10 11:10:12;;;;;;;55.67;24.53;;;0.90;99.90;;;;;;4399088;28;656840;-73
2023/12/10 11:13:00;;;;;;;56.80;24.00;;;0.90;99.90;;;;;;4407770;28;656625;-72
2023/12/10 11:15:47;;;;;;;56.80;24.60;;;0.90;99.90;;;;;;4424037;28;656661;-72
2023/12/10 11:18:36;;;;;;;57.60;25.93;;;0.90;99.90;;;;;;4396420;28;657327;-72
2023/12/10 11:21:23;;;;;;;55.47;23.27;;;1.00;99.90;;;;;;4403063;28;656390;-72
2023/12/10 11:24:12;;;;;;;54.53;24.43;;;1.10;99.90;;;;;;4419401;28;658111;-72
2023/12/10 11:27:00;;;;;;;57.60;24.83;;;1.00;99.90;;;;;;4406786;28;657492;-72
2023/12/10 11:29:47;;;;;;;57.03;25.53;;;1.00;99.90;;;;;;4417149;28;656583;-71
2023/12/10 11:32:35;;;;;;;55.10;24.50;;;1.00;99.90;;;;;;4417330;28;657477;-72
2023/12/10 11:35:23;;;;;;;56.23;24.73;;;1.00;99.90;;;;;;4421826;28;657239;-73
2023/12/10 11:38:10;;;;;;;58.00;23.20;;;1.10;99.90;;;;;;4423485;28;656980;-72
2023/12/10 11:40:59;;;;;;;50.40;22.17;;;1.10;99.90;;;;;;4418854;28;657257;-72
2023/12/10 11:43:46;;;;;;;45.60;20.37;;;1.00;99.90;;;;;;4425081;28;656612;-72
2023/12/10 11:46:33;;;;;;;24.60;10.63;;;1.00;99.90;;;;;;4406833;28;656988;-72
2023/12/10 11:49:21;;;;;;;49.13;20.07;;;1.00;99.90;;;;;;4422752;28;656113;-72
2023/12/10 11:52:08;;;;;;;46.20;20.33;;;0.90;99.90;;;;;;4401819;28;657569;-71
2023/12/10 11:54:55;;;;;;;16.87;7.67;;;0.80;99.90;;;;;;4429116;28;657646;-71
2023/12/10 11:57:44;;;;;;;47.47;20.40;;;0.80;99.90;;;;;;4406327;28;655843;-71
2023/12/10 12:00:31;;;;;;;33.23;14.13;;;0.80;99.90;;;;;;4426196;28;657128;-71
2023/12/10 12:03:19;;;;;;;43.47;19.40;;;0.80;99.90;;;;;;4407328;28;656875;-71
2023/12/10 12:06:06;;;;;;;26.40;10.57;;;0.70;99.90;;;;;;4422682;28;656422;-71
2023/12/10 12:08:54;;;;;;;44.70;17.90;;;0.70;99.90;;;;;;4409261;28;656351;-71
2023/12/10 12:11:41;;;;;;;54.23;22.40;;;0.80;99.90;;;;;;4431507;28;657278;-71
2023/12/10 12:14:29;;;;;;;21.60;9.73;;;0.70;99.90;;;;;;4406974;28;656638;-71
2023/12/10 12:17:17;;;;;;;50.30;22.67;;;0.70;99.90;;;;;;4424797;28;655856;-71
2023/12/10 12:20:17;;;;;;;45.73;21.23;;;0.70;99.90;;;;;;4396325;28;656737;-71
2023/12/10 12:23:04;;;;;;;41.60;18.40;;;0.70;99.90;;;;;;4408605;28;656375;-71
2023/12/10 12:25:51;;;;;;;55.13;25.17;;;0.90;99.90;;;;;;4432022;28;656152;-71
2023/12/10 12:28:38;;;;;;;58.33;25.43;;;0.80;99.90;;;;;;4408466;28;657546;-71
2023/12/10 12:31:27;;;;;;;29.47;12.73;;;0.70;99.90;;;;;;4421891;28;657054;-71
2023/12/10 12:34:14;;;;;;;55.73;24.90;;;0.80;99.90;;;;;;4407269;28;656856;-71
2023/12/10 12:37:01;;;;;;;36.57;15.47;;;0.70;99.90;;;;;;4436419;28;656629;-70
2023/12/10 12:39:49;;;;;;;43.93;17.83;;;0.70;99.90;;;;;;4393048;28;656618;-71
2023/12/10 12:42:36;;;;;;;63.43;29.17;;;0.70;99.90;;;;;;4426064;28;656163;-71
2023/12/10 12:45:23;;;;;;;67.03;31.37;;;0.80;99.90;;;;;;4405269;28;656729;-71
2023/12/10 12:48:12;;;;;;;67.97;27.33;;;0.70;99.90;;;;;;4421827;28;657203;-71
2023/12/10 12:50:59;;;;;;;63.13;27.17;;;0.70;99.90;;;;;;4409168;28;657074;-70
2023/12/10 12:53:46;;;;;;;69.57;28.73;;;0.70;99.90;;;;;;4430200;28;656431;-71
2023/12/10 12:56:33;;;;;;;69.63;29.73;;;0.60;99.90;;;;;;4410034;28;657839;-71
2023/12/10 12:59:21;;;;;;;27.87;11.73;;;0.70;99.90;;;;;;4422982;28;657222;-71
2023/12/10 13:02:08;;;;;;;53.47;23.97;;;0.80;99.90;;;;;;4403199;28;656794;-70
2023/12/10 13:04:57;;;;;;;23.73;9.73;;;0.80;99.90;;;;;;4417004;28;657905;-71
2023/12/10 13:07:45;;;;;;;43.77;16.87;;;0.80;99.90;;;;;;4409563;28;656314;-71
2023/12/10 13:10:33;;;;;;;27.98;11.77;;;0.80;99.90;;;;;;4407654;28;656540;-71
2023/12/10 13:13:21;;;;;;;65.40;28.42;;;0.80;99.90;;;;;;4427304;28;656898;-71
2023/12/10 13:16:08;;;;;;;50.13;21.00;;;0.80;99.90;;;;;;4400354;28;656576;-71
2023/12/10 13:18:55;;;;;;;54.43;23.40;;;0.80;99.90;;;;;;4420903;28;655891;-71
2023/12/10 13:21:44;;;;;;;59.20;28.63;;;0.80;99.90;;;;;;4407889;28;656474;-71
2023/12/10 13:24:31;;;;;;;41.70;18.93;;;0.80;99.90;;;;;;4431442;28;656493;-71
2023/12/10 13:27:18;;;;;;;24.90;10.63;;;0.80;99.90;;;;;;4401546;28;657241;-71
2023/12/10 13:30:07;;;;;;;57.88;24.48;;;0.80;99.90;;;;;;4421010;28;657555;-71
2023/12/10 13:32:54;;;;;;;54.53;20.90;;;0.80;99.90;;;;;;4400416;28;656877;-72
2023/12/10 13:35:41;;;;;;;25.00;11.80;;;0.90;99.90;;;;;;4425917;28;656201;-72
2023/12/10 13:38:30;;;;;;;65.60;29.60;;;0.90;99.90;;;;;;4406399;28;656704;-71
2023/12/10 13:41:17;;;;;;;40.17;16.77;;;0.90;99.90;;;;;;4422149;28;656154;-71
2023/12/10 13:44:05;;;;;;;74.63;33.50;;;0.90;99.90;;;;;;4427991;28;658390;-71
2023/12/10 13:46:52;;;;;;;72.53;33.07;;;0.90;99.90;;;;;;4412405;28;656691;-71
2023/12/10 13:49:40;;;;;;;88.83;39.40;;;0.90;99.90;;;;;;4427972;28;657050;-71
2023/12/10 13:52:28;;;;;;;82.33;35.73;;;0.90;99.90;;;;;;4422712;28;656726;-71
2023/12/10 13:55:17;;;;;;;76.70;36.47;;;0.90;99.90;;;;;;4423360;28;656741;-71
2023/12/10 13:58:05;;;;;;;66.67;30.53;;;0.90;99.90;;;;;;4399626;28;657794;-72
2023/12/10 14:00:53;;;;;;;58.97;24.60;;;0.90;99.90;;;;;;4409957;28;657116;-71
2023/12/10 14:03:40;;;;;;;64.63;27.70;;;1.00;99.90;;;;;;4428590;28;657518;-71